Wyandotte, Michigan
Current Conditions -  °F | °C
As of 3:34 AM on Sunday 23 Nov 2014 (Local Time) from KONZ Reporting Station
Overcast Overcast  
Wind Chill: 33°   Ceiling: 3100
Heat Index: 39°   Visibility: 10mi
Dew Point: 36°   Wind: 9mph
Humidity: 87%   Direction: 180°S
Pressure: 29.96"   Gusts: NA
Location:  42.2°N, 83.15°W
Report Text: KONZ 230834Z AUTO 18008KT 10SM BKN031 OVC048 04/02 A2996 RMK AO2
Loading
Personal Weather Stations






























Interactive Weather Map New forecast layout! Learn more

10-Day Weather Forecast

Advertisements
Track Severe Weather on mobile